createdAt,value
2018-04-29T00:02:18.173Z,3.30
2018-04-29T00:04:47.897Z,2.50
2018-04-29T00:07:17.418Z,3.30
2018-04-29T00:09:46.602Z,2.80
2018-04-29T00:12:17.884Z,2.90
2018-04-29T00:14:47.321Z,3.17
2018-04-29T00:17:16.990Z,3.00
2018-04-29T00:19:46.237Z,3.07
2018-04-29T00:22:15.655Z,2.60
2018-04-29T00:24:44.797Z,2.90
2018-04-29T00:27:14.227Z,3.10
2018-04-29T00:29:43.644Z,3.00
2018-04-29T00:32:16.666Z,3.03
2018-04-29T00:34:45.695Z,3.57
2018-04-29T00:37:14.988Z,3.20
2018-04-29T00:39:44.649Z,3.33
2018-04-29T00:42:14.102Z,3.47
2018-04-29T00:44:43.461Z,3.57
2018-04-29T00:47:12.577Z,2.87
2018-04-29T00:49:42.031Z,3.80
2018-04-29T00:52:11.496Z,3.33
2018-04-29T00:54:40.819Z,3.30
2018-04-29T00:57:10.182Z,3.37
2018-04-29T00:59:39.201Z,3.60
2018-04-29T01:02:09.393Z,2.93
2018-04-29T01:04:38.683Z,4.27
2018-04-29T01:07:08.128Z,2.70
2018-04-29T01:09:37.526Z,3.10
2018-04-29T01:12:07.261Z,3.00
2018-04-29T01:14:34.847Z,3.47
2018-04-29T01:17:04.356Z,3.00
2018-04-29T01:19:33.948Z,3.27
2018-04-29T01:22:03.167Z,3.20
2018-04-29T01:24:32.383Z,3.53
2018-04-29T01:27:06.190Z,3.03
2018-04-29T01:29:33.633Z,3.07
2018-04-29T01:32:03.414Z,3.40
2018-04-29T01:34:33.057Z,3.50
2018-04-29T01:37:02.195Z,3.47
2018-04-29T01:39:31.508Z,3.47
2018-04-29T01:42:01.770Z,3.40
2018-04-29T01:44:30.897Z,3.00
2018-04-29T01:47:00.770Z,3.63
2018-04-29T01:49:30.249Z,4.30
2018-04-29T01:52:00.101Z,3.43
2018-04-29T01:54:33.841Z,3.33
2018-04-29T01:57:03.266Z,3.60
2018-04-29T01:59:32.938Z,3.43
2018-04-29T02:02:02.209Z,3.63
2018-04-29T02:04:31.979Z,3.50
2018-04-29T02:07:01.109Z,3.83
2018-04-29T02:09:30.554Z,3.70
2018-04-29T02:12:00.755Z,4.10
2018-04-29T02:14:30.449Z,4.43
2018-04-29T02:16:59.814Z,3.70
2018-04-29T02:19:29.501Z,4.10
2018-04-29T02:21:58.617Z,3.07
2018-04-29T02:24:27.959Z,4.07
2018-04-29T02:26:57.654Z,3.87
2018-04-29T02:29:27.128Z,3.90
2018-04-29T02:31:56.334Z,3.53
2018-04-29T02:34:25.448Z,3.27
2018-04-29T02:36:55.434Z,3.27
2018-04-29T02:39:24.300Z,3.60
2018-04-29T02:41:53.713Z,3.50
2018-04-29T02:44:22.955Z,4.20
2018-04-29T02:46:50.435Z,4.20
2018-04-29T02:49:20.279Z,4.13
2018-04-29T02:51:49.763Z,4.43
2018-04-29T02:54:19.151Z,4.03
2018-04-29T02:56:48.633Z,3.87
2018-04-29T02:59:18.278Z,3.40
2018-04-29T03:01:47.493Z,4.37
2018-04-29T03:04:16.945Z,3.57
2018-04-29T03:06:46.749Z,3.60
2018-04-29T03:09:16.324Z,4.43
2018-04-29T03:11:45.445Z,3.80
2018-04-29T03:14:15.067Z,4.03
2018-04-29T03:16:44.264Z,4.10
2018-04-29T03:19:13.626Z,4.03
2018-04-29T03:21:43.949Z,4.57
2018-04-29T03:24:13.751Z,4.03
2018-04-29T03:26:45.611Z,4.10
2018-04-29T03:29:15.564Z,3.87
2018-04-29T03:31:44.678Z,4.40
2018-04-29T03:34:14.768Z,4.37
2018-04-29T03:36:44.595Z,4.33
2018-04-29T03:39:14.752Z,3.90
2018-04-29T03:41:44.069Z,4.40
2018-04-29T03:44:13.582Z,4.40
2018-04-29T03:46:43.133Z,4.90
2018-04-29T03:49:14.427Z,4.80
2018-04-29T03:51:43.993Z,4.40
2018-04-29T03:54:13.471Z,4.50
2018-04-29T03:56:43.016Z,4.37
2018-04-29T03:59:24.971Z,5.10
2018-04-29T04:02:05.642Z,4.43
2018-04-29T04:04:35.160Z,4.70
2018-04-29T04:07:04.814Z,4.80
2018-04-29T04:09:34.416Z,4.80
2018-04-29T04:12:04.229Z,4.90
2018-04-29T04:14:33.322Z,4.97
2018-04-29T04:17:02.812Z,5.00
2018-04-29T04:19:32.287Z,4.83
2018-04-29T04:22:01.800Z,4.40
2018-04-29T04:24:31.340Z,4.97
2018-04-29T04:27:00.727Z,5.40
2018-04-29T04:29:28.246Z,4.90
2018-04-29T04:31:57.685Z,4.80
2018-04-29T04:34:27.060Z,5.10
2018-04-29T04:36:56.250Z,4.70
2018-04-29T04:39:26.065Z,4.50
2018-04-29T04:41:55.190Z,4.50
2018-04-29T04:44:25.121Z,4.60
2018-04-29T04:46:54.441Z,4.97
2018-04-29T04:49:24.106Z,4.80
2018-04-29T04:51:53.723Z,4.60
2018-04-29T04:54:23.222Z,5.13
2018-04-29T04:56:56.669Z,4.90
2018-04-29T04:59:26.407Z,4.63
2018-04-29T05:01:56.262Z,4.93
2018-04-29T05:04:26.046Z,5.67
2018-04-29T05:06:57.246Z,5.00
2018-04-29T05:09:26.458Z,4.93
2018-04-29T05:11:56.045Z,4.93
2018-04-29T05:14:25.419Z,5.07
2018-04-29T05:16:54.776Z,5.80
2018-04-29T05:19:24.235Z,5.23
2018-04-29T05:21:55.564Z,5.10
2018-04-29T05:24:25.143Z,5.60
2018-04-29T05:26:55.096Z,5.33
2018-04-29T05:29:24.945Z,5.43
2018-04-29T05:31:54.395Z,5.40
2018-04-29T05:34:23.888Z,5.43
2018-04-29T05:36:53.463Z,5.77
2018-04-29T05:39:22.659Z,5.37
2018-04-29T05:41:52.155Z,6.83
2018-04-29T05:44:21.320Z,5.40
2018-04-29T05:46:54.677Z,5.30
2018-04-29T05:49:24.093Z,5.53
2018-04-29T05:51:53.830Z,6.33
2018-04-29T05:54:23.462Z,6.90
2018-04-29T05:56:53.073Z,5.00
2018-04-29T05:59:20.948Z,6.10
2018-04-29T06:01:50.933Z,5.80
2018-04-29T06:04:20.115Z,5.37
2018-04-29T06:06:49.098Z,5.40
2018-04-29T06:09:18.499Z,5.50
2018-04-29T06:11:45.934Z,5.07
2018-04-29T06:14:15.602Z,5.47
2018-04-29T06:16:44.508Z,5.07
2018-04-29T06:19:13.107Z,4.60
2018-04-29T06:21:42.218Z,4.63
2018-04-29T06:24:12.112Z,5.60
2018-04-29T06:26:41.100Z,4.57
2018-04-29T06:29:09.674Z,4.50
2018-04-29T06:31:42.684Z,4.00
2018-04-29T06:34:11.980Z,4.30
2018-04-29T06:36:41.439Z,3.90
2018-04-29T06:39:11.060Z,4.10
2018-04-29T06:41:40.560Z,4.27
2018-04-29T06:44:09.884Z,3.70
2018-04-29T06:46:39.617Z,4.00
2018-04-29T06:49:09.155Z,4.20
2018-04-29T06:51:40.310Z,3.80
2018-04-29T06:54:09.788Z,4.20
2018-04-29T06:56:39.354Z,4.30
2018-04-29T06:59:09.477Z,4.03
2018-04-29T07:01:39.012Z,4.40
2018-04-29T07:04:10.637Z,4.60
2018-04-29T07:54:49.588Z,3.60
2018-04-29T07:57:18.773Z,3.70
2018-04-29T07:59:49.797Z,3.80
2018-04-29T08:02:18.948Z,3.53
2018-04-29T08:04:53.022Z,3.50
2018-04-29T08:07:23.947Z,3.70
2018-04-29T08:09:54.509Z,3.30
2018-04-29T08:12:24.486Z,3.87
2018-04-29T08:14:55.808Z,3.17
2018-04-29T08:17:30.062Z,3.87
2018-04-29T08:19:57.520Z,3.50
2018-04-29T08:22:26.142Z,3.07
2018-04-29T08:24:55.706Z,3.50
2018-04-29T08:27:25.529Z,3.40
2018-04-29T08:29:59.093Z,3.47
2018-04-29T08:32:29.041Z,3.67
2018-04-29T08:34:58.439Z,3.30
2018-04-29T08:37:28.250Z,3.43
2018-04-29T08:39:57.836Z,3.53
2018-04-29T08:42:28.511Z,3.43
2018-04-29T08:44:58.650Z,2.93
2018-04-29T08:47:28.725Z,3.30
2018-04-29T08:49:57.964Z,3.30
2018-04-29T08:52:27.541Z,3.37
2018-04-29T08:54:56.868Z,3.63
2018-04-29T08:57:29.424Z,3.80
2018-04-29T09:00:00.191Z,3.70
2018-04-29T09:02:30.937Z,3.40
2018-04-29T09:05:00.601Z,3.57
2018-04-29T09:07:30.970Z,3.77
2018-04-29T09:10:00.589Z,3.53
2018-04-29T09:12:28.065Z,4.20
2018-04-29T09:15:01.567Z,3.60
2018-04-29T09:17:30.652Z,4.17
2018-04-29T09:19:59.951Z,3.40
2018-04-29T09:22:29.356Z,4.00
2018-04-29T09:24:56.831Z,3.77
2018-04-29T09:27:27.054Z,3.70
2018-04-29T09:30:04.393Z,4.00
2018-04-29T09:32:34.822Z,3.50
2018-04-29T09:35:04.161Z,3.80
2018-04-29T10:22:46.170Z,3.70
2018-04-29T10:25:18.475Z,3.50
2018-04-29T10:27:47.982Z,3.80
2018-04-29T10:30:18.753Z,4.10
2018-04-29T10:32:46.494Z,3.90
2018-04-29T10:35:15.918Z,4.23
2018-04-29T10:37:44.834Z,3.97
2018-04-29T10:43:08.332Z,4.20
2018-04-29T10:45:37.116Z,3.47
2018-04-29T10:48:07.456Z,3.73
2018-04-29T10:50:37.035Z,3.67
2018-04-29T10:53:11.879Z,4.30
2018-04-29T10:55:44.686Z,4.47
2018-04-29T10:58:13.745Z,3.80
2018-04-29T11:00:41.283Z,3.97
2018-04-29T11:03:09.418Z,3.50
2018-04-29T11:05:36.887Z,4.03
2018-04-29T11:08:05.600Z,4.60
2018-04-29T11:57:15.826Z,3.63
2018-04-29T11:59:44.076Z,4.00
2018-04-29T12:02:11.656Z,3.20
2018-04-29T12:04:39.165Z,3.20
2018-04-29T12:07:08.517Z,3.60
2018-04-29T12:09:36.043Z,4.30
2018-04-29T12:12:03.624Z,4.47
2018-04-29T12:14:31.339Z,3.43
2018-04-29T12:17:00.888Z,3.40
2018-04-29T12:19:28.940Z,3.53
2018-04-29T12:21:56.461Z,3.50
2018-04-29T12:24:25.048Z,4.70
2018-04-29T12:26:54.322Z,4.13
2018-04-29T12:29:23.578Z,4.13
2018-04-29T12:31:52.287Z,4.10
2018-04-29T12:34:19.907Z,4.20
2018-04-29T12:36:47.417Z,3.77
2018-04-29T12:39:15.477Z,3.63
2018-04-29T12:41:43.083Z,3.80
2018-04-29T12:44:10.643Z,3.50
2018-04-29T12:46:39.255Z,3.47
2018-04-29T12:49:06.752Z,3.80
2018-04-29T12:51:36.171Z,3.57
2018-04-29T12:54:04.567Z,3.60
2018-04-29T12:56:34.300Z,3.53
2018-04-29T12:59:02.746Z,3.63
2018-04-29T13:01:30.518Z,3.57
2018-04-29T13:03:58.139Z,2.83
2018-04-29T13:06:29.097Z,3.40
2018-04-29T13:08:56.892Z,2.67
2018-04-29T13:11:24.452Z,3.50
2018-04-29T13:13:51.996Z,3.33
2018-04-29T13:16:19.498Z,3.50
2018-04-29T13:18:47.052Z,2.90
2018-04-29T13:21:16.023Z,3.23
2018-04-29T13:23:43.645Z,2.77
2018-04-29T13:26:12.148Z,2.60
2018-04-29T13:28:39.806Z,2.60
2018-04-29T13:31:07.725Z,3.10
2018-04-29T13:33:35.339Z,2.57
2018-04-29T13:36:06.167Z,2.23
2018-04-29T13:38:33.823Z,2.93
2018-04-29T13:41:02.584Z,3.00
2018-04-29T13:43:31.021Z,3.70
2018-04-29T13:45:59.806Z,3.13
2018-04-29T13:48:30.541Z,3.30
2018-04-29T13:50:58.935Z,3.33
2018-04-29T13:53:27.349Z,3.37
2018-04-29T13:55:54.877Z,3.50
2018-04-29T13:58:22.419Z,4.10
2018-04-29T14:00:49.977Z,3.60
2018-04-29T14:03:18.478Z,3.23
2018-04-29T14:05:46.884Z,4.93
2018-04-29T14:08:16.648Z,3.60
2018-04-29T14:10:44.500Z,3.40
2018-04-29T14:13:12.006Z,3.77
2018-04-29T14:15:39.881Z,4.03
2018-04-29T14:18:07.920Z,3.50
2018-04-29T14:20:35.379Z,3.23
2018-04-29T14:23:02.899Z,3.53
2018-04-29T14:25:30.404Z,3.80
2018-04-29T14:27:58.990Z,4.60
2018-04-29T14:30:26.697Z,3.70
2018-04-29T14:32:54.208Z,4.20
2018-04-29T14:35:21.688Z,5.30
2018-04-29T14:37:49.369Z,3.73
2018-04-29T14:40:17.410Z,3.80
2018-04-29T14:42:45.995Z,3.97
2018-04-29T14:45:13.667Z,3.80
2018-04-29T14:47:41.286Z,3.40
2018-04-29T14:50:08.779Z,5.10
2018-04-29T14:52:36.465Z,4.40
2018-04-29T14:55:05.543Z,3.73
2018-04-29T14:57:35.631Z,4.33
2018-04-29T15:02:47.439Z,4.30
2018-04-29T15:05:16.012Z,4.60
2018-04-29T15:07:44.061Z,3.57
2018-04-29T15:10:12.853Z,5.17
2018-04-29T15:12:41.573Z,4.33
2018-04-29T15:15:10.658Z,3.93
2018-04-29T15:17:40.821Z,4.07
2018-04-29T15:20:08.452Z,4.30
2018-04-29T15:22:40.670Z,4.20
2018-04-29T15:25:08.447Z,5.47
2018-04-29T15:27:35.906Z,4.93
2018-04-29T15:30:04.702Z,5.00
2018-04-29T15:32:33.811Z,4.30
2018-04-29T15:35:01.536Z,4.93
2018-04-29T15:37:30.574Z,4.40
2018-04-29T15:39:59.970Z,4.47
2018-04-29T15:47:45.362Z,4.73
2018-04-29T15:50:28.451Z,4.30
2018-04-29T15:53:01.516Z,4.17
2018-04-29T15:55:34.715Z,3.90
2018-04-29T15:58:04.501Z,5.20
2018-04-29T16:00:35.467Z,4.30
2018-04-29T16:03:06.450Z,4.87
2018-04-29T16:05:36.125Z,4.00
2018-04-29T16:08:04.535Z,4.83
2018-04-29T16:10:32.567Z,4.90
2018-04-29T16:13:00.714Z,4.50
2018-04-29T16:15:30.469Z,4.10
2018-04-29T16:17:58.185Z,5.37
2018-04-29T16:20:25.616Z,4.50
2018-04-29T16:22:55.218Z,3.90
2018-04-29T16:25:23.365Z,4.30
2018-04-29T16:27:52.019Z,4.40
2018-04-29T16:30:19.814Z,4.73
2018-04-29T16:32:47.379Z,4.30
2018-04-29T16:35:14.871Z,4.50
2018-04-29T16:37:42.989Z,4.57
2018-04-29T16:40:11.619Z,4.73
2018-04-29T16:42:39.176Z,4.70
2018-04-29T16:45:07.541Z,4.13
2018-04-29T16:47:35.143Z,4.10
2018-04-29T16:50:06.489Z,4.20
2018-04-29T16:52:34.077Z,3.50
2018-04-29T16:55:01.696Z,4.00
2018-04-29T16:57:31.206Z,4.20
2018-04-29T16:59:59.917Z,4.00
2018-04-29T17:02:29.828Z,3.60
2018-04-29T17:04:59.602Z,3.70
2018-04-29T17:07:29.053Z,3.50
2018-04-29T17:09:58.526Z,3.90
2018-04-29T17:12:28.004Z,4.60
2018-04-29T17:15:01.429Z,4.20
2018-04-29T17:17:31.283Z,3.87
2018-04-29T17:20:00.415Z,4.00
2018-04-29T17:22:32.335Z,4.30
2018-04-29T17:25:01.842Z,4.00
2018-04-29T17:27:32.132Z,4.00
2018-04-29T17:30:06.989Z,4.13
2018-04-29T17:32:36.728Z,4.70
2018-04-29T17:35:05.080Z,3.67
2018-04-29T17:37:35.040Z,4.37
2018-04-29T17:40:04.421Z,4.17
2018-04-29T17:42:33.093Z,4.40
2018-04-29T17:45:03.743Z,4.23
2018-04-29T17:47:34.873Z,4.50
2018-04-29T17:50:05.232Z,4.53
2018-04-29T17:52:34.821Z,4.70
2018-04-29T17:55:04.929Z,4.83
2018-04-29T17:57:36.575Z,4.53
2018-04-29T18:00:05.977Z,4.10
2018-04-29T18:05:14.312Z,4.27
2018-04-29T18:07:45.588Z,4.50
2018-04-29T18:10:15.001Z,4.50
2018-04-29T18:12:44.273Z,5.63
2018-04-29T18:15:13.355Z,5.27
2018-04-29T18:17:43.214Z,5.67
2018-04-29T18:20:13.953Z,5.63
2018-04-29T18:22:44.945Z,4.90
2018-04-29T18:25:14.965Z,4.97
2018-04-29T18:27:43.186Z,4.17
2018-04-29T18:30:12.081Z,4.67
2018-04-29T18:32:42.796Z,4.47
2018-04-29T18:35:15.393Z,4.30
2018-04-29T18:37:45.598Z,4.30
2018-04-29T18:40:14.963Z,4.47
2018-04-29T18:42:44.317Z,3.80
2018-04-29T18:45:15.020Z,4.30
2018-04-29T18:47:45.178Z,4.70
2018-04-29T18:50:15.194Z,4.50
2018-04-29T18:52:46.568Z,4.10
2018-04-29T18:55:16.395Z,4.80
2018-04-29T18:57:45.871Z,4.30
2018-04-29T19:00:15.046Z,3.90
2018-04-29T19:02:43.933Z,4.83
2018-04-29T19:05:14.706Z,4.30
2018-04-29T19:07:44.017Z,4.53
2018-04-29T19:10:13.839Z,4.40
2018-04-29T19:12:44.748Z,4.60
2018-04-29T19:15:20.457Z,4.50
2018-04-29T19:17:54.983Z,4.73
2018-04-29T19:20:24.495Z,4.77
2018-04-29T19:22:53.860Z,4.67
2018-04-29T19:25:23.454Z,5.10
2018-04-29T19:27:52.324Z,5.10
2018-04-29T19:30:20.825Z,5.83
2018-04-29T19:32:48.738Z,4.30
2018-04-29T19:35:16.851Z,5.00
2018-04-29T19:37:44.384Z,4.80
2018-04-29T19:40:12.982Z,4.53
2018-04-29T19:42:41.288Z,4.50
2018-04-29T19:45:09.766Z,5.30
2018-04-29T19:47:37.776Z,4.70
2018-04-29T19:50:05.402Z,5.60
2018-04-29T19:52:33.778Z,5.40
2018-04-29T19:55:01.433Z,5.60
2018-04-29T19:57:29.589Z,4.83
2018-04-29T20:00:00.717Z,6.07
2018-04-29T20:02:29.887Z,5.00
2018-04-29T20:04:57.530Z,5.30
2018-04-29T20:07:25.049Z,6.10
2018-04-29T20:09:52.611Z,6.10
2018-04-29T20:12:21.804Z,6.00
2018-04-29T20:14:50.068Z,4.90
2018-04-29T20:17:20.636Z,7.03
2018-04-29T20:19:52.379Z,6.13
2018-04-29T20:22:20.109Z,7.53
2018-04-29T20:24:48.037Z,6.10
2018-04-29T20:27:15.568Z,5.40
2018-04-29T20:29:43.051Z,5.87
2018-04-29T20:32:11.514Z,5.23
2018-04-29T20:34:39.431Z,6.13
2018-04-29T20:37:07.524Z,6.50
2018-04-29T20:39:35.043Z,5.97
2018-04-29T20:42:03.167Z,5.43
2018-04-29T20:44:32.279Z,5.80
2018-04-29T20:47:00.359Z,5.80
2018-04-29T20:49:28.036Z,5.10
2018-04-29T20:51:55.879Z,5.70
2018-04-29T20:54:23.429Z,5.07
2018-04-29T20:56:52.312Z,6.10
2018-04-29T20:59:19.882Z,5.63
2018-04-29T21:01:47.419Z,5.33
2018-04-29T21:04:16.834Z,6.73
2018-04-29T21:06:44.457Z,5.90
2018-04-29T21:09:11.952Z,6.50
2018-04-29T21:11:41.383Z,6.10
2018-04-29T21:14:09.769Z,5.90
2018-04-29T21:16:38.408Z,6.17
2018-04-29T21:19:06.626Z,6.10
2018-04-29T21:21:34.192Z,6.63
2018-04-29T21:24:01.788Z,6.67
2018-04-29T21:26:29.382Z,7.40
2018-04-29T21:28:56.939Z,6.37
2018-04-29T21:31:24.602Z,5.90
2018-04-29T21:33:53.091Z,6.17
2018-04-29T21:36:20.958Z,7.13
2018-04-29T21:38:48.465Z,6.60
2018-04-29T21:41:15.980Z,5.63
2018-04-29T21:43:43.586Z,5.60
2018-04-29T21:46:11.420Z,5.67
2018-04-29T21:48:38.926Z,5.83
2018-04-29T21:51:07.090Z,5.67
2018-04-29T21:53:37.733Z,5.70
2018-04-29T21:56:06.144Z,6.30
2018-04-29T21:58:33.830Z,6.33
2018-04-29T22:01:01.806Z,6.70
2018-04-29T22:03:30.275Z,6.37
2018-04-29T22:05:57.738Z,6.60
2018-04-29T22:08:25.373Z,6.17
2018-04-29T22:10:53.881Z,6.10
2018-04-29T22:13:21.536Z,6.03
2018-04-29T22:15:49.123Z,5.97
2018-04-29T22:18:16.598Z,6.40
2018-04-29T22:20:44.312Z,6.23
2018-04-29T22:23:12.279Z,5.20
2018-04-29T22:25:40.397Z,5.50
2018-04-29T22:28:10.101Z,5.53
2018-04-29T22:30:39.551Z,6.33
2018-04-29T22:33:07.036Z,5.67
2018-04-29T22:35:35.330Z,6.07
2018-04-29T22:38:02.826Z,6.43
2018-04-29T22:40:30.320Z,5.80
2018-04-29T22:42:57.865Z,5.80
2018-04-29T22:45:25.326Z,5.30
2018-04-29T22:47:52.831Z,5.50
2018-04-29T22:50:20.282Z,6.07
2018-04-29T22:52:47.810Z,5.70
2018-04-29T22:55:15.955Z,5.73
2018-04-29T22:57:44.214Z,5.50
2018-04-29T23:00:11.708Z,5.90
2018-04-29T23:02:39.972Z,6.33
2018-04-29T23:05:09.109Z,5.03
2018-04-29T23:07:36.715Z,6.00
2018-04-29T23:10:04.205Z,5.43
2018-04-29T23:12:31.733Z,5.17
2018-04-29T23:14:59.864Z,5.47
2018-04-29T23:17:28.323Z,5.57
2018-04-29T23:19:55.888Z,5.30
2018-04-29T23:22:23.472Z,5.20
2018-04-29T23:24:50.971Z,5.47
2018-04-29T23:27:18.576Z,5.17
2018-04-29T23:29:46.747Z,5.80
2018-04-29T23:32:14.235Z,5.27
2018-04-29T23:34:41.728Z,5.33
2018-04-29T23:37:09.205Z,5.43
2018-04-29T23:39:36.642Z,5.07
2018-04-29T23:42:04.197Z,5.57
2018-04-29T23:44:31.696Z,4.93
2018-04-29T23:47:00.193Z,6.80
2018-04-29T23:49:29.127Z,5.60
2018-04-29T23:51:57.453Z,6.17
2018-04-29T23:54:24.997Z,6.00
2018-04-29T23:56:53.312Z,5.63
2018-04-29T23:59:22.636Z,6.37
